Time;durP1;ratioP1;P1;durP2;ratioP2;P2;SDS_P1;SDS_P2;PMS_P1;PMS_P2;Temp;Humidity;BMP_temperature;BMP_pressure;BME280_temperature;BME280_humidity;BME280_pressure;Samples;Min_cycle;Max_cycle;Signal;HPM_P1;HPM_P2
2021/10/09 00:00:09;;;;;;;9.32;4.82;;;;;;;13.88;76.45;99149.28;5015480;28;20113;-59
2021/10/09 00:02:34;;;;;;;9.13;4.93;;;;;;;13.93;77.12;99170.56;5006802;28;20705;-58
2021/10/09 00:05:00;;;;;;;8.82;4.97;;;;;;;14.01;76.66;99171.41;5015727;28;20072;-59
2021/10/09 00:07:26;;;;;;;9.57;5.07;;;;;;;13.79;76.69;99133.53;5024283;28;20495;-59
2021/10/09 00:09:54;;;;;;;8.85;4.97;;;;;;;14.13;76.25;99171.19;5007012;28;20491;-58
2021/10/09 00:12:20;;;;;;;9.02;5.70;;;;;;;14.03;75.76;99179.13;5011404;28;20084;-59
2021/10/09 00:14:45;;;;;;;9.30;5.40;;;;;;;14.02;76.42;99167.03;5020170;28;20592;-60
2021/10/09 00:17:14;;;;;;;9.07;5.10;;;;;;;14.11;77.07;99184.41;5023478;28;20036;-61
2021/10/09 00:19:40;;;;;;;8.70;5.03;;;;;;;14.10;76.80;99179.34;5027037;28;20569;-59
2021/10/09 00:22:05;;;;;;;9.52;4.82;;;;;;;13.49;77.12;99108.66;5018703;28;20033;-58
2021/10/09 00:24:31;;;;;;;9.63;5.57;;;;;;;13.80;77.22;99139.59;5026297;28;20571;-59
2021/10/09 00:26:56;;;;;;;8.57;5.20;;;;;;;13.90;77.49;99148.16;5016447;28;20822;-58
2021/10/09 00:29:22;;;;;;;9.55;4.88;;;;;;;13.68;76.82;99125.94;5018795;28;20029;-58
2021/10/09 00:31:47;;;;;;;9.40;4.88;;;;;;;14.04;77.21;99173.75;5014463;28;20063;-59
2021/10/09 00:34:13;;;;;;;10.05;4.85;;;;;;;14.13;77.79;99182.47;5005873;28;20078;-58
2021/10/09 00:36:38;;;;;;;10.63;4.85;;;;;;;14.11;77.63;99179.19;5018915;28;20052;-59
2021/10/09 00:39:04;;;;;;;10.98;5.38;;;;;;;14.11;76.70;99176.56;5027550;28;20118;-59
2021/10/09 00:41:30;;;;;;;7.78;4.85;;;;;;;13.98;77.04;99176.97;5024980;28;20072;-59
2021/10/09 00:43:55;;;;;;;9.65;5.50;;;;;;;13.89;76.86;99180.50;4998418;28;20124;-58
2021/10/09 00:46:20;;;;;;;9.15;5.88;;;;;;;14.02;77.15;99178.31;5023926;28;20504;-59
2021/10/09 00:48:46;;;;;;;9.63;5.40;;;;;;;14.13;76.84;99179.84;5020873;28;20038;-59
2021/10/09 00:51:11;;;;;;;9.73;5.55;;;;;;;14.09;77.01;99169.84;5015220;28;20072;-58
2021/10/09 00:53:40;;;;;;;9.73;5.45;;;;;;;13.86;77.73;99167.72;5022905;28;20025;-59
2021/10/09 00:56:08;;;;;;;10.40;5.82;;;;;;;13.93;77.78;99171.38;5025317;28;20476;-60
2021/10/09 00:58:34;;;;;;;10.95;6.00;;;;;;;14.03;77.85;99174.69;5030734;28;20032;-59
2021/10/09 01:00:59;;;;;;;9.93;5.35;;;;;;;13.85;77.49;99176.53;5016364;28;20164;-59
2021/10/09 01:03:25;;;;;;;9.57;5.72;;;;;;;13.58;77.54;99117.34;5022613;28;20765;-58
2021/10/09 01:05:50;;;;;;;10.18;5.78;;;;;;;13.83;77.97;99157.56;5009026;28;20048;-59
2021/10/09 01:08:16;;;;;;;9.20;5.47;;;;;;;13.97;77.56;99174.50;5007519;28;20120;-60
2021/10/09 01:10:41;;;;;;;9.10;5.22;;;;;;;13.97;77.59;99159.63;5002896;28;20597;-58
2021/10/09 01:13:07;;;;;;;12.40;5.97;;;;;;;13.74;77.45;99117.47;4995440;28;20544;-59
2021/10/09 01:15:34;;;;;;;10.20;5.68;;;;;;;14.10;77.68;99167.06;5016062;28;20029;-59
2021/10/09 01:18:07;;;;;;;9.85;6.10;;;;;;;14.13;77.30;99155.50;5009506;28;20067;-59
2021/10/09 01:20:52;;;;;;;11.65;5.90;;;;;;;14.07;76.14;99161.31;5015428;28;20032;-59
2021/10/09 01:23:18;;;;;;;10.27;5.88;;;;;;;14.05;76.60;99166.72;5000103;28;20082;-59
2021/10/09 01:25:44;;;;;;;12.13;6.10;;;;;;;13.98;76.81;99153.44;5018485;28;20036;-59
2021/10/09 01:28:10;;;;;;;10.52;5.78;;;;;;;13.99;76.88;99162.91;5011081;28;20037;-58
2021/10/09 01:30:35;;;;;;;9.95;6.15;;;;;;;14.03;77.12;99158.19;5014868;28;20639;-58
2021/10/09 01:33:02;;;;;;;10.60;5.80;;;;;;;13.86;77.08;99128.53;5021052;28;20037;-58
2021/10/09 01:35:27;;;;;;;11.18;6.07;;;;;;;14.00;77.46;99158.50;5014528;28;20025;-59
2021/10/09 01:37:52;;;;;;;11.45;5.95;;;;;;;13.78;77.64;99118.00;5004480;28;20399;-60
2021/10/09 01:40:18;;;;;;;8.90;5.93;;;;;;;14.13;77.67;99151.09;5029370;28;20084;-58
2021/10/09 01:42:43;;;;;;;10.20;6.20;;;;;;;13.87;77.02;99111.03;5016416;28;20423;-58
2021/10/09 01:45:09;;;;;;;11.13;6.25;;;;;;;14.04;77.45;99155.44;5011540;28;20492;-59
2021/10/09 01:47:42;;;;;;;10.35;5.70;;;;;;;13.78;77.85;99108.38;5029525;28;20036;-60
2021/10/09 01:50:09;;;;;;;10.98;6.15;;;;;;;13.69;77.80;99111.06;5021665;28;20030;-59
2021/10/09 01:52:35;;;;;;;12.85;7.05;;;;;;;13.92;76.90;99150.63;5031119;28;20575;-59
2021/10/09 01:55:00;;;;;;;12.63;7.45;;;;;;;13.93;75.29;99149.66;5019295;28;20105;-59
2021/10/09 01:57:25;;;;;;;14.00;7.25;;;;;;;13.93;74.58;99147.84;5030928;28;20033;-59
2021/10/09 01:59:51;;;;;;;14.88;7.65;;;;;;;13.90;74.89;99135.06;5026140;28;20395;-59
2021/10/09 02:02:16;;;;;;;12.82;6.95;;;;;;;13.67;75.37;99097.34;5025791;28;20071;-60
2021/10/09 02:04:41;;;;;;;12.40;7.03;;;;;;;13.90;75.49;99137.69;5025726;28;20655;-59
2021/10/09 02:07:12;;;;;;;10.82;6.65;;;;;;;13.62;75.75;99092.59;5039035;28;20124;-59
2021/10/09 02:09:38;;;;;;;12.02;6.47;;;;;;;13.86;76.07;99132.94;5033323;28;20102;-60
2021/10/09 02:12:03;;;;;;;14.57;6.82;;;;;;;13.92;75.93;99132.31;4988245;28;20029;-59
2021/10/09 02:14:39;;;;;;;13.05;7.28;;;;;;;13.64;75.96;99080.19;5022957;28;20025;-59
2021/10/09 02:25:26;;;;;;;15.30;7.53;;;;;;;14.02;73.99;99127.81;5021197;28;20087;-58
2021/10/09 02:27:54;;;;;;;12.43;7.30;;;;;;;14.00;73.57;99120.13;5023062;28;20435;-58
2021/10/09 02:30:20;;;;;;;13.98;8.13;;;;;;;14.07;73.57;99124.72;5033547;28;20542;-59
2021/10/09 02:32:45;;;;;;;13.07;7.72;;;;;;;14.04;73.58;99113.59;5019212;28;20034;-59
2021/10/09 02:35:10;;;;;;;12.63;7.70;;;;;;;13.89;74.09;99104.69;5029783;28;20470;-58
2021/10/09 02:37:36;;;;;;;14.18;8.30;;;;;;;13.95;74.49;99118.94;5029669;28;20130;-58
2021/10/09 02:40:02;;;;;;;13.88;8.18;;;;;;;13.91;74.94;99107.97;5025198;28;20514;-59
2021/10/09 02:42:28;;;;;;;12.32;7.35;;;;;;;13.97;74.79;99117.81;5007980;28;20120;-59
2021/10/09 02:44:53;;;;;;;14.43;8.02;;;;;;;13.31;74.74;99008.63;5015455;28;20163;-58
2021/10/09 02:47:18;;;;;;;13.55;8.10;;;;;;;14.01;74.69;99118.31;5022069;28;20041;-59
2021/10/09 02:49:44;;;;;;;15.23;7.82;;;;;;;13.99;74.46;99118.47;5018553;28;20140;-58
2021/10/09 02:52:09;;;;;;;14.32;7.85;;;;;;;13.99;74.34;99113.25;5024805;28;20083;-59
2021/10/09 02:54:34;;;;;;;14.38;8.45;;;;;;;14.03;74.62;99117.19;5003854;28;22747;-58
2021/10/09 02:57:00;;;;;;;12.30;8.07;;;;;;;13.99;74.99;99107.19;5022912;28;20057;-59
2021/10/09 02:59:25;;;;;;;13.00;8.05;;;;;;;13.98;74.73;99113.38;5017286;28;20112;-58
2021/10/09 03:01:51;;;;;;;14.77;8.63;;;;;;;14.01;74.48;99110.47;5018714;28;20049;-59
2021/10/09 03:04:16;;;;;;;15.77;8.20;;;;;;;13.98;74.84;99114.22;5016956;28;20343;-59
2021/10/09 03:06:41;;;;;;;13.25;8.52;;;;;;;13.96;74.38;99110.13;5024295;28;20057;-58
2021/10/09 03:09:07;;;;;;;14.95;8.35;;;;;;;13.86;74.34;99075.44;5033168;28;20044;-59
2021/10/09 03:11:32;;;;;;;13.95;8.38;;;;;;;14.09;74.24;99113.16;5015949;28;20411;-59
2021/10/09 03:13:57;;;;;;;11.70;7.65;;;;;;;14.14;74.11;99110.88;5028491;28;20060;-59
2021/10/09 03:16:24;;;;;;;13.68;8.02;;;;;;;14.10;74.04;99113.97;5028684;28;20037;-59
2021/10/09 03:18:50;;;;;;;13.65;7.93;;;;;;;14.06;74.16;99108.22;5029538;28;20136;-58
2021/10/09 03:21:15;;;;;;;13.82;8.65;;;;;;;14.04;74.27;99097.91;5033825;28;20528;-58
2021/10/09 03:23:40;;;;;;;12.93;8.77;;;;;;;14.03;74.30;99105.91;5000760;28;20034;-58
2021/10/09 03:26:06;;;;;;;13.18;8.27;;;;;;;14.02;74.19;99105.09;5019363;28;20029;-59
2021/10/09 03:28:31;;;;;;;14.20;8.45;;;;;;;14.08;73.48;99100.22;5020337;28;20080;-58
2021/10/09 03:30:57;;;;;;;14.65;8.57;;;;;;;14.03;74.11;99100.69;5011054;28;20033;-59
2021/10/09 03:33:22;;;;;;;13.73;8.18;;;;;;;13.93;74.16;99100.78;5026379;28;20032;-58
2021/10/09 03:35:47;;;;;;;12.50;7.95;;;;;;;13.99;74.21;99108.00;5036648;28;20484;-60
2021/10/09 03:38:13;;;;;;;14.30;7.88;;;;;;;14.07;73.63;99106.41;5019063;28;20027;-58
2021/10/09 03:40:40;;;;;;;16.27;8.00;;;;;;;13.88;73.58;99071.69;5033716;28;20036;-58
2021/10/09 03:43:09;;;;;;;13.18;8.00;;;;;;;14.01;73.83;99103.44;5020249;28;20056;-58
2021/10/09 03:53:31;;;;;;;13.63;8.43;;;;;;;14.03;74.45;99101.50;5031295;28;20829;-58
2021/10/09 03:55:57;;;;;;;13.90;7.75;;;;;;;13.90;74.82;99085.41;5019806;28;20037;-58
2021/10/09 03:58:22;;;;;;;12.18;7.93;;;;;;;13.95;75.11;99105.88;5031336;28;20519;-59
2021/10/09 04:00:47;;;;;;;12.10;7.80;;;;;;;13.98;74.93;99105.53;5024708;28;20034;-59
2021/10/09 04:03:13;;;;;;;14.35;9.00;;;;;;;14.00;74.98;99093.13;5015079;28;20077;-59
2021/10/09 04:05:38;;;;;;;14.20;8.18;;;;;;;14.11;74.05;99105.97;5027721;28;20063;-58
2021/10/09 04:08:06;;;;;;;14.73;8.00;;;;;;;14.06;74.07;99103.00;5015865;28;20128;-58
2021/10/09 04:10:32;;;;;;;12.48;7.85;;;;;;;14.06;74.17;99104.78;5031174;28;20112;-58
2021/10/09 04:12:57;;;;;;;12.20;7.55;;;;;;;14.12;74.16;99109.41;5016500;28;20022;-58
2021/10/09 04:15:23;;;;;;;14.70;8.13;;;;;;;14.01;74.43;99110.47;5017995;28;20044;-60
2021/10/09 04:17:48;;;;;;;14.10;7.78;;;;;;;13.99;74.41;99100.16;5028182;28;20040;-58
2021/10/09 04:20:13;;;;;;;13.50;7.88;;;;;;;13.92;74.92;99103.56;5022856;28;20038;-59
2021/10/09 04:22:39;;;;;;;13.98;8.00;;;;;;;14.06;74.58;99105.59;5026460;28;20500;-59
2021/10/09 04:25:06;;;;;;;13.10;7.75;;;;;;;14.00;73.96;99095.75;5020212;28;20476;-59
2021/10/09 04:27:31;;;;;;;13.52;7.80;;;;;;;14.05;73.70;99101.34;5033202;28;20048;-59
2021/10/09 04:29:57;;;;;;;12.63;7.72;;;;;;;14.09;73.01;99107.91;5014900;28;20029;-58
2021/10/09 04:32:22;;;;;;;12.70;7.15;;;;;;;14.05;73.22;99098.72;5017979;28;20036;-58
2021/10/09 04:34:47;;;;;;;13.52;7.50;;;;;;;14.06;72.79;99094.34;5024260;28;20108;-59
2021/10/09 04:37:13;;;;;;;13.57;8.13;;;;;;;13.89;73.36;99078.56;5031084;28;20148;-59
2021/10/09 04:39:38;;;;;;;14.10;7.20;;;;;;;14.15;72.96;99102.06;5028952;28;20033;-58
2021/10/09 04:42:03;;;;;;;11.15;6.78;;;;;;;14.07;72.96;99096.78;5020653;28;20038;-58
2021/10/09 04:44:29;;;;;;;16.15;7.47;;;;;;;13.83;72.46;99061.66;5022503;28;20200;-59
2021/10/09 04:46:55;;;;;;;13.32;7.82;;;;;;;14.08;72.75;99102.84;5031771;28;20498;-58
2021/10/09 04:49:20;;;;;;;10.93;6.80;;;;;;;14.12;72.86;99098.94;5024852;28;20025;-58
2021/10/09 04:51:45;;;;;;;16.65;7.47;;;;;;;13.82;73.16;99065.28;5028767;28;20063;-58
2021/10/09 04:54:11;;;;;;;12.38;7.05;;;;;;;13.99;72.49;99089.72;5029900;28;20036;-59
2021/10/09 04:56:36;;;;;;;11.07;6.45;;;;;;;14.13;71.24;99092.75;5013938;28;20116;-59
2021/10/09 04:59:02;;;;;;;14.05;7.28;;;;;;;14.14;70.97;99094.38;5024592;28;20107;-58
2021/10/09 05:01:27;;;;;;;12.90;6.82;;;;;;;13.83;71.54;99058.25;5008276;28;20033;-58
2021/10/09 05:03:53;;;;;;;12.52;7.18;;;;;;;13.81;71.64;99060.19;5029740;28;20075;-60
2021/10/09 05:06:18;;;;;;;12.73;7.10;;;;;;;13.74;71.27;99043.50;5022989;28;20100;-60
2021/10/09 05:08:43;;;;;;;11.45;6.68;;;;;;;14.13;70.43;99084.91;5026947;28;20029;-58
2021/10/09 05:11:10;;;;;;;10.82;6.50;;;;;;;14.07;70.32;99088.94;5034007;28;20053;-59
2021/10/09 05:13:35;;;;;;;10.23;6.22;;;;;;;13.91;70.66;99063.53;5028258;28;20018;-58
2021/10/09 05:16:00;;;;;;;12.88;6.78;;;;;;;14.09;70.77;99094.84;5011365;28;20037;-58
2021/10/09 05:18:26;;;;;;;13.15;6.88;;;;;;;13.99;70.72;99089.72;5028797;28;20083;-59
2021/10/09 05:20:51;;;;;;;14.00;6.70;;;;;;;13.86;70.34;99059.75;5014405;28;20037;-59
2021/10/09 05:23:17;;;;;;;13.35;6.65;;;;;;;13.99;70.34;99094.13;5020474;28;20032;-58
2021/10/09 05:25:43;;;;;;;12.30;6.45;;;;;;;14.03;70.27;99098.88;5029528;28;20045;-58
2021/10/09 05:28:15;;;;;;;14.10;6.75;;;;;;;14.04;70.11;99105.75;5022070;28;20496;-58
2021/10/09 05:30:48;;;;;;;11.10;6.65;;;;;;;14.12;70.45;99112.00;5021097;28;20075;-60
2021/10/09 05:35:55;;;;;;;11.27;6.47;;;;;;;14.11;70.22;99118.19;5017599;28;20821;-58
2021/10/09 05:38:21;;;;;;;14.95;6.80;;;;;;;14.02;70.71;99120.78;5030338;28;20049;-58
2021/10/09 05:40:47;;;;;;;17.58;6.78;;;;;;;14.02;70.63;99128.63;5024539;28;20664;-58
2021/10/09 05:43:20;;;;;;;11.55;6.30;;;;;;;14.07;70.53;99129.94;5010908;28;20049;-58
2021/10/09 05:45:45;;;;;;;12.98;7.18;;;;;;;13.89;70.90;99109.09;5024367;28;20029;-58
2021/10/09 05:48:11;;;;;;;10.20;6.22;;;;;;;13.77;70.91;99105.91;5036618;28;20495;-60
2021/10/09 05:50:56;;;;;;;12.45;7.05;;;;;;;13.78;70.76;99105.78;5028946;28;20052;-58
2021/10/09 05:53:49;;;;;;;14.00;7.07;;;;;;;13.96;71.70;99136.25;5028326;28;20033;-58
2021/10/09 07:00:38;;;;;;;9.38;5.57;;;;;;;14.03;66.41;99211.31;5010503;28;20116;-58
2021/10/09 07:03:04;;;;;;;10.20;5.10;;;;;;;13.77;65.94;99184.31;5017488;28;20104;-59
2021/10/09 07:05:30;;;;;;;11.13;5.15;;;;;;;13.90;66.29;99229.19;5018117;28;20041;-58
2021/10/09 07:07:58;;;;;;;11.45;5.07;;;;;;;13.91;66.03;99228.22;5017150;28;20079;-61
2021/10/09 07:10:24;;;;;;;8.50;4.65;;;;;;;13.96;66.06;99222.53;5016392;28;20030;-58
2021/10/09 07:12:49;;;;;;;12.73;4.85;;;;;;;13.90;65.74;99229.19;5022230;28;20748;-58
2021/10/09 07:15:15;;;;;;;10.43;4.63;;;;;;;13.84;66.10;99227.19;5018354;28;20099;-57
2021/10/09 07:17:42;;;;;;;9.27;4.80;;;;;;;13.80;66.64;99233.69;5008259;28;20033;-57
2021/10/09 07:20:08;;;;;;;9.43;4.38;;;;;;;13.83;66.29;99235.97;5004880;28;20659;-57
2021/10/09 07:22:33;;;;;;;11.68;4.35;;;;;;;13.91;65.56;99237.84;5016399;28;20028;-57
2021/10/09 07:24:59;;;;;;;8.75;4.03;;;;;;;13.92;65.49;99249.94;4998333;28;20440;-59
2021/10/09 07:27:24;;;;;;;9.93;4.38;;;;;;;13.97;65.61;99239.88;5014150;28;20384;-59
2021/10/09 07:29:50;;;;;;;9.82;4.32;;;;;;;13.96;65.76;99243.44;5014337;28;20120;-59
2021/10/09 07:32:15;;;;;;;8.60;4.13;;;;;;;14.00;65.84;99250.00;5000072;28;20171;-60
2021/10/09 07:34:41;;;;;;;12.02;4.80;;;;;;;14.08;65.18;99251.88;5021358;28;20032;-57
2021/10/09 07:37:06;;;;;;;11.00;4.53;;;;;;;14.16;64.89;99252.75;5018849;28;20060;-59
2021/10/09 07:39:32;;;;;;;10.50;4.75;;;;;;;13.88;65.15;99210.22;5015448;28;20071;-57
2021/10/09 07:42:00;;;;;;;8.88;4.30;;;;;;;14.15;65.16;99252.94;5014974;28;20451;-59
2021/10/09 07:44:26;;;;;;;9.98;4.75;;;;;;;14.16;64.62;99250.13;5013088;28;20064;-59
2021/10/09 07:46:52;;;;;;;8.60;4.70;;;;;;;14.22;64.12;99251.34;5012124;28;20045;-60
2021/10/09 07:49:17;;;;;;;11.13;4.93;;;;;;;13.80;63.88;99199.72;4946753;28;20030;-58
2021/10/09 07:51:43;;;;;;;9.27;4.70;;;;;;;13.96;64.46;99230.38;5014700;28;20750;-57
2021/10/09 07:54:08;;;;;;;10.65;4.35;;;;;;;14.12;64.29;99256.66;5013415;28;20044;-58
2021/10/09 07:56:34;;;;;;;11.63;4.80;;;;;;;14.06;64.25;99254.66;5016241;28;21777;-59
2021/10/09 07:58:59;;;;;;;9.35;4.38;;;;;;;13.87;64.05;99223.44;5018103;28;20205;-59
2021/10/09 08:01:25;;;;;;;10.73;4.70;;;;;;;14.07;63.39;99258.88;5014014;28;20029;-57
2021/10/09 08:03:51;;;;;;;9.68;4.40;;;;;;;13.94;63.74;99251.44;4949428;28;20050;-59
2021/10/09 08:06:17;;;;;;;12.60;4.38;;;;;;;14.07;63.30;99268.53;5019000;28;20109;-60
2021/10/09 08:08:42;;;;;;;14.10;5.28;;;;;;;13.78;63.38;99226.00;5011324;28;20030;-57
2021/10/09 08:11:08;;;;;;;11.77;5.13;;;;;;;13.68;62.99;99229.66;5009484;28;20565;-56
2021/10/09 08:13:35;;;;;;;9.82;4.70;;;;;;;14.09;63.11;99277.03;5005258;28;20381;-59
2021/10/09 08:16:02;;;;;;;10.02;4.40;;;;;;;13.94;63.24;99264.50;5010333;28;20030;-60
2021/10/09 08:18:27;;;;;;;10.38;4.65;;;;;;;14.08;63.36;99273.63;5010039;28;20199;-58
2021/10/09 08:21:00;;;;;;;8.48;4.10;;;;;;;13.81;62.98;99238.75;4998063;28;20044;-59
2021/10/09 08:23:28;;;;;;;9.63;4.47;;;;;;;14.00;62.97;99271.75;5004064;28;20818;-58
2021/10/09 08:37:07;;;;;;;10.20;4.50;;;;;;;13.94;61.63;99248.00;5008666;28;20415;-58
2021/10/09 08:39:33;;;;;;;11.77;4.75;;;;;;;14.03;62.56;99276.66;5013615;28;20121;-59
2021/10/09 08:41:58;;;;;;;10.40;4.60;;;;;;;13.86;62.32;99248.75;5016605;28;20041;-58
2021/10/09 08:44:24;;;;;;;12.95;4.82;;;;;;;14.23;61.70;99293.00;5008618;28;20040;-58
2021/10/09 08:46:49;;;;;;;10.48;4.65;;;;;;;14.22;62.17;99301.03;5014689;28;20033;-58
2021/10/09 08:49:14;;;;;;;10.27;4.60;;;;;;;13.99;62.63;99296.25;5013473;28;20021;-58
2021/10/09 08:51:40;;;;;;;8.77;4.60;;;;;;;14.08;62.17;99305.00;4946734;28;20584;-57
2021/10/09 08:54:09;;;;;;;12.00;4.80;;;;;;;13.86;61.41;99263.63;5026348;28;20032;-57
2021/10/09 08:56:38;;;;;;;10.48;4.57;;;;;;;14.02;61.58;99303.81;5000424;28;20650;-58
2021/10/09 08:59:23;;;;;;;11.40;4.80;;;;;;;14.12;61.57;99308.94;5010222;28;20038;-59
2021/10/09 09:02:14;;;;;;;8.85;4.47;;;;;;;14.04;62.18;99307.09;5006676;28;20037;-59
2021/10/09 09:39:43;;;;;;;10.07;4.43;;;;;;;14.05;61.15;99313.13;5005549;28;20065;-57
2021/10/09 09:42:09;;;;;;;11.73;4.47;;;;;;;14.04;61.40;99307.09;5004311;28;20025;-60
2021/10/09 09:44:35;;;;;;;14.15;5.20;;;;;;;14.06;61.71;99308.75;4992039;28;20021;-59
2021/10/09 09:47:09;;;;;;;10.82;4.65;;;;;;;14.12;60.72;99318.59;5005296;28;20034;-59
2021/10/09 09:49:35;;;;;;;9.30;4.45;;;;;;;13.78;57.94;99253.91;5002534;28;20076;-59
2021/10/09 09:52:00;;;;;;;10.45;4.05;;;;;;;14.11;58.20;99303.84;5011608;28;20037;-60
2021/10/09 09:54:28;;;;;;;9.73;4.30;;;;;;;14.16;57.71;99315.50;5010542;28;20022;-60
2021/10/09 09:56:56;;;;;;;8.45;4.30;;;;;;;14.07;58.25;99294.69;5014933;28;20053;-59
2021/10/09 09:59:27;;;;;;;8.20;4.20;;;;;;;14.21;58.55;99312.47;4999112;28;20087;-59
2021/10/09 10:01:53;;;;;;;10.05;4.20;;;;;;;14.20;58.71;99318.66;5007767;28;20783;-60
2021/10/09 10:04:19;;;;;;;9.52;3.95;;;;;;;14.11;58.76;99306.47;5007312;28;20099;-60
2021/10/09 10:06:45;;;;;;;10.32;3.80;;;;;;;14.12;58.04;99301.09;5004640;28;20509;-60
2021/10/09 10:09:10;;;;;;;10.52;4.63;;;;;;;14.07;58.62;99315.59;5008457;28;20626;-59
2021/10/09 10:11:36;;;;;;;9.02;3.95;;;;;;;13.89;58.19;99279.00;5011744;28;20160;-60
2021/10/09 10:14:02;;;;;;;9.60;4.13;;;;;;;14.08;58.25;99306.81;5007676;28;20103;-60
2021/10/09 10:16:27;;;;;;;11.85;4.18;;;;;;;13.87;57.81;99275.72;4993470;28;20032;-59
2021/10/09 10:18:54;;;;;;;9.57;4.32;;;;;;;14.09;58.25;99316.28;5013910;28;20033;-60
2021/10/09 10:21:32;;;;;;;8.80;4.03;;;;;;;14.12;59.12;99322.03;5018323;28;20040;-58
2021/10/09 10:23:57;;;;;;;9.23;4.20;;;;;;;13.99;59.49;99296.25;5015449;28;20039;-59
2021/10/09 10:26:33;;;;;;;10.40;4.50;;;;;;;14.24;59.95;99322.63;5022327;28;20029;-59
2021/10/09 10:28:58;;;;;;;11.82;4.10;;;;;;;14.35;59.68;99318.97;5025123;28;20037;-60
2021/10/09 10:31:25;;;;;;;10.35;4.25;;;;;;;14.09;59.22;99277.03;5032160;28;20040;-60
2021/10/09 10:33:58;;;;;;;12.52;4.68;;;;;;;14.26;59.22;99302.38;5022867;28;20030;-59
2021/10/09 10:36:41;;;;;;;11.43;4.47;;;;;;;14.27;58.29;99303.19;5015204;28;20041;-58
2021/10/09 10:39:08;;;;;;;9.10;3.88;;;;;;;14.29;57.88;99273.31;5017751;28;20592;-60
2021/10/09 10:44:48;;;;;;;9.27;4.38;;;;;;;14.51;57.60;99307.78;5030296;28;20052;-60
2021/10/09 10:48:04;;;;;;;10.10;4.18;;;;;;;14.47;57.33;99312.50;5017783;28;20029;-60
2021/10/09 10:50:52;;;;;;;8.60;4.15;;;;;;;14.53;57.81;99311.91;5028849;28;20598;-61
2021/10/09 10:53:27;;;;;;;8.18;4.05;;;;;;;14.62;57.12;99304.97;5017264;28;20086;-60
2021/10/09 10:56:10;;;;;;;8.05;4.13;;;;;;;14.41;54.68;99307.88;5021581;28;20407;-59
2021/10/09 10:58:37;;;;;;;9.25;3.72;;;;;;;14.52;56.15;99309.44;5021858;28;20408;-59
2021/10/09 11:01:24;;;;;;;10.38;4.00;;;;;;;14.65;56.69;99312.47;5019486;28;20443;-59
2021/10/09 11:03:54;;;;;;;10.57;4.20;;;;;;;14.58;56.74;99316.69;5035472;28;20040;-59
2021/10/09 11:06:22;;;;;;;8.07;4.30;;;;;;;14.70;57.38;99320.69;5018330;28;20029;-60
2021/10/09 11:08:48;;;;;;;11.70;4.53;;;;;;;14.76;56.29;99309.59;5024906;28;20040;-59
2021/10/09 11:11:14;;;;;;;10.15;4.40;;;;;;;14.55;54.99;99268.06;5002517;28;20033;-60
2021/10/09 11:13:47;;;;;;;8.32;4.20;;;;;;;14.94;54.29;99316.59;5018648;28;20040;-59
2021/10/09 11:16:13;;;;;;;11.13;4.35;;;;;;;14.88;53.09;99304.13;4998443;28;20053;-60
2021/10/09 11:18:52;;;;;;;11.82;4.35;;;;;;;14.97;52.76;99288.28;5004114;28;20128;-60
2021/10/09 11:21:18;;;;;;;10.27;4.03;;;;;;;15.10;52.33;99295.72;5013162;28;20022;-60
2021/10/09 11:23:57;;;;;;;7.55;4.22;;;;;;;15.15;51.18;99303.09;5019063;28;20034;-59
2021/10/09 11:26:27;;;;;;;11.82;4.45;;;;;;;14.91;51.73;99262.75;5013849;28;20079;-59
2021/10/09 11:29:03;;;;;;;;;;;;;;;15.21;52.92;99294.63;5002691;28;20427;-60
2021/10/09 11:31:29;;;;;;;9.10;3.95;;;;;;;15.09;52.65;99249.53;5021994;28;19909;-60
2021/10/09 11:33:56;;;;;;;8.48;3.80;;;;;;;15.41;50.81;99289.13;5013107;28;20040;-59
2021/10/09 11:36:22;;;;;;;8.30;3.70;;;;;;;15.36;50.94;99293.03;5022096;28;20018;-60
2021/10/09 11:38:47;;;;;;;10.95;4.30;;;;;;;15.34;50.85;99275.84;5021480;28;20049;-60
2021/10/09 11:41:19;;;;;;;10.88;4.35;;;;;;;15.37;50.41;99283.38;5014390;28;20063;-60
2021/10/09 11:43:49;;;;;;;8.10;4.70;;;;;;;15.54;50.90;99281.63;5020196;28;20021;-60
2021/10/09 11:55:14;;;;;;;10.52;4.07;;;;;;;15.60;51.74;99277.53;5020229;28;20048;-59
2021/10/09 11:57:33;;;;;;;8.45;4.50;;;;;;;15.64;50.66;99284.09;5020300;28;20077;-58
2021/10/09 11:59:58;;;;;;;7.93;4.20;;;;;;;15.61;51.13;99266.09;5027247;28;20426;-60
2021/10/09 12:02:36;;;;;;;11.45;4.50;;;;;;;15.65;50.14;99257.72;5017773;28;20030;-60
2021/10/09 12:05:02;;;;;;;9.93;4.50;;;;;;;15.86;50.70;99266.94;5020796;28;20029;-58
2021/10/09 12:07:27;;;;;;;8.73;4.47;;;;;;;15.98;48.58;99251.72;5022989;28;20025;-60
2021/10/09 12:10:01;;;;;;;11.30;6.35;;;;;;;15.44;48.37;99207.56;5003792;28;20068;-59
2021/10/09 12:12:35;;;;;;;9.75;5.10;;;;;;;15.71;49.42;99257.06;5019602;28;20101;-60
2021/10/09 12:15:01;;;;;;;12.48;6.20;;;;;;;15.40;49.93;99196.56;5003895;28;20037;-59
2021/10/09 12:17:37;;;;;;;9.23;4.47;;;;;;;15.76;49.12;99251.38;5019879;28;20095;-60
2021/10/09 12:20:05;;;;;;;8.40;4.75;;;;;;;15.74;49.79;99240.25;5013480;28;20091;-61
2021/10/09 12:22:45;;;;;;;9.18;4.60;;;;;;;15.80;48.42;99229.09;5019760;28;20022;-60
2021/10/09 12:25:27;;;;;;;8.32;4.55;;;;;;;15.73;49.11;99212.34;5015373;28;20028;-59
2021/10/09 12:28:01;;;;;;;9.40;4.43;;;;;;;15.68;48.22;99207.59;5026010;28;20112;-59
2021/10/09 12:30:35;;;;;;;10.02;4.63;;;;;;;15.80;48.35;99239.56;5023695;28;20157;-60
2021/10/09 12:33:00;;;;;;;9.82;5.00;;;;;;;15.79;50.29;99232.72;5011394;28;20029;-60
2021/10/09 12:35:28;;;;;;;8.55;4.53;;;;;;;15.95;48.74;99227.47;5019958;28;20530;-59
2021/10/09 12:38:05;;;;;;;8.80;4.90;;;;;;;16.04;49.66;99216.97;5019242;28;20030;-59
2021/10/09 12:40:41;;;;;;;11.98;4.57;;;;;;;15.81;48.10;99173.06;5039810;28;20030;-59
2021/10/09 12:43:10;;;;;;;9.23;4.43;;;;;;;16.08;48.24;99213.84;5023787;28;20025;-60
2021/10/09 12:45:36;;;;;;;10.13;4.23;;;;;;;16.05;49.69;99208.13;5025016;28;20109;-60
2021/10/09 12:48:02;;;;;;;9.32;4.68;;;;;;;15.89;49.92;99196.63;5026182;28;20365;-60
2021/10/09 12:50:29;;;;;;;10.18;4.90;;;;;;;15.79;49.03;99210.91;5018415;28;20058;-59
2021/10/09 12:52:56;;;;;;;9.20;4.15;;;;;;;15.90;49.18;99213.22;5016542;28;20036;-60
2021/10/09 12:55:26;;;;;;;9.98;4.68;;;;;;;15.94;50.51;99215.31;5020992;28;20072;-59
2021/10/09 12:57:55;;;;;;;11.25;5.97;;;;;;;16.03;50.72;99212.72;5023683;28;20025;-60
2021/10/09 13:00:22;;;;;;;9.43;5.17;;;;;;;16.13;49.87;99205.47;5018089;28;20132;-59
2021/10/09 13:02:47;;;;;;;11.60;5.13;;;;;;;16.15;49.52;99200.88;5025416;28;20033;-59
2021/10/09 13:05:13;;;;;;;10.00;4.55;;;;;;;16.03;50.01;99210.09;5029724;28;20103;-60
2021/10/09 13:07:39;;;;;;;9.75;4.63;;;;;;;15.82;50.13;99161.56;5008216;28;20442;-59
2021/10/09 13:10:05;;;;;;;8.65;4.07;;;;;;;15.69;50.88;99195.31;5024017;28;20083;-60
2021/10/09 13:12:31;;;;;;;10.77;4.65;;;;;;;15.60;51.61;99191.03;5028617;28;20037;-59
2021/10/09 13:14:57;;;;;;;11.30;4.55;;;;;;;15.29;50.66;99157.59;5020756;28;20028;-60
2021/10/09 13:17:22;;;;;;;10.80;4.30;;;;;;;15.55;50.46;99194.13;5025480;28;20029;-60
2021/10/09 13:19:48;;;;;;;8.93;4.38;;;;;;;15.49;52.58;99192.19;5025738;28;20033;-61
2021/10/09 13:22:14;;;;;;;9.43;4.57;;;;;;;15.43;51.98;99191.03;5021168;28;20131;-61
2021/10/09 13:24:39;;;;;;;12.10;4.25;;;;;;;15.30;51.84;99173.16;5036034;28;20074;-60
2021/10/09 13:27:05;;;;;;;10.10;4.75;;;;;;;15.24;52.31;99191.31;5034076;28;20033;-61
2021/10/09 13:29:31;;;;;;;9.98;4.25;;;;;;;15.36;52.48;99187.41;5007806;28;20025;-62
2021/10/09 13:31:56;;;;;;;9.95;3.85;;;;;;;15.45;52.20;99175.97;5020160;28;20112;-60
2021/10/09 13:34:21;;;;;;;10.93;4.47;;;;;;;15.14;52.39;99136.44;5022019;28;20034;-61
2021/10/09 13:36:47;;;;;;;8.07;4.60;;;;;;;15.55;52.75;99171.38;5000325;28;20123;-60
2021/10/09 13:39:13;;;;;;;10.75;4.88;;;;;;;14.94;52.43;99099.25;5010471;28;20714;-61
2021/10/09 13:41:40;;;;;;;10.63;4.38;;;;;;;15.48;53.58;99174.78;5037954;28;20119;-61
2021/10/09 13:44:06;;;;;;;8.98;4.63;;;;;;;15.33;54.75;99164.13;5029199;28;20064;-60
2021/10/09 13:46:32;;;;;;;9.18;4.50;;;;;;;15.23;53.02;99173.97;5027657;28;20065;-60
2021/10/09 13:48:58;;;;;;;8.15;4.43;;;;;;;14.98;52.65;99138.03;5021542;28;20032;-60
2021/10/09 13:51:23;;;;;;;11.75;4.75;;;;;;;15.21;52.38;99173.31;5030938;28;20037;-61